Aviation Digital Data Service (ADDS)

Output produced by METARs form (1825 UTC 22 November 2017)
found at http://www.aviationweather.gov/adds/metars/
 
WBGB 221800Z 01005KT 300V060 4000 RA FEW015CB SCT016 BKN150 25/25 Q1006
TAF WBGB 221700Z 2218/2318 15005KT 9999 SCT016 BKN150 
     TEMPO 2310/2314 3000 TSRA SCT014 FEW015CB
       
WMKB 221800Z 06003KT 7000 FEW025 SCT140 BKN270 27/26 Q1007 NOSIG
TAF WMKB 221700Z 2218/2318 05005KT 8000 FEW023 SCT140 
     TEMPO 2309/2314 5000 -TSRA FEW017CB
       
WMKE 221800Z AUTO 30003KT 250V030 //// // 25/24 Q1007
TAF WMKE 221700Z 2218/2318 05008KT 9999 FEW024 SCT160 BKN280 
     BECMG 2301/2303 6000 -RA FEW008 SCT020 OVC220 
     TEMPO 2308/2312 3000 RA FEW005 SCT018 OVC160
       
TAF WMAP 221700Z 2218/2318 03005KT 9999 FEW024 SCT140 BKN260 
     TEMPO 2307/2311 3000 TSRA FEW017CB SCT020
       
WBKK 221800Z VRB03KT 9999 FEW014 SCT140 BKN270 25/24 Q1005 NOSIG
TAF WBKK 221700Z 2218/2318 11005KT 9999 FEW014
       
WMKK 221800Z 04004KT 7000 FEW030 BKN290 26/24 Q1007 NOSIG
TAF WMKK 221700Z 2218/2400 33005KT 9999 FEW030 SCT140 BKN280 
     TEMPO 2305/2309 2500 TSRA FEW016CB SCT024 
     TEMPO 2312/2316 3000 TSRA FEW015CB SCT018
       
WMKD 221800Z VRB01KT 9000 FEW003 BKN280 25/24 Q1007 NOSIG
WBGG 221800Z VRB02KT 9999 SCT020 BKN150 25/25 Q1007 NOSIG
TAF WBGG 221700Z 2218/2318 VRB03KT 9999 SCT020 BKN150 
     TEMPO 2219/2223 5000 RA FEW005 SCT018 
     TEMPO 2307/2311 3000 TSRA FEW015CB
       
WBKL 221800Z 08003KT 040V120 9999 FEW012 BKN300 28/23 Q1005
TAF WBKL 221700Z 2218/2318 09005KT 9999 FEW012
       
WMKL 221800Z 00000KT 9000 FEW008 FEW017CB SCT140 BKN270 26/25 Q1008
TAF WMKL 221700Z 2218/2318 04005KT 9999 FEW022 SCT140 BKN260 
     TEMPO 2310/2314 3000 TSRA FEW017CB SCT018
       
WMKM 221800Z VRB02KT 9999 FEW030 BKN280 27/25 Q1007
TAF WMKM 221700Z 2218/2318 35005KT 9999 FEW030 SCT140 BKN280 
     TEMPO 2306/2310 3000 TSRA FEW015CB SCT018
       
WBGR 221800Z VRB02KT 9999 SCT016 BKN150 25/25 Q1005
TAF WBGR 221700Z 2218/2318 20005KT 9999 SCT016 BKN150 
     TEMPO 2308/2312 3000 TSRA SCT014 FEW015CB
       
WBGB 221800Z 01005KT 300V060 4000 RA FEW015CB SCT016 BKN150 25/25 Q1006
TAF WBGB 221700Z 2218/2318 15005KT 9999 SCT016 BKN150 
     TEMPO 2310/2314 3000 TSRA SCT014 FEW015CB
       
WBGG 221800Z VRB02KT 9999 SCT020 BKN150 25/25 Q1007 NOSIG
TAF WBGG 221700Z 2218/2318 VRB03KT 9999 SCT020 BKN150 
     TEMPO 2219/2223 5000 RA FEW005 SCT018 
     TEMPO 2307/2311 3000 TSRA FEW015CB
       
WBGR 221800Z VRB02KT 9999 SCT016 BKN150 25/25 Q1005
TAF WBGR 221700Z 2218/2318 20005KT 9999 SCT016 BKN150 
     TEMPO 2308/2312 3000 TSRA SCT014 FEW015CB
       
WBGS 221800Z 15003KT 110V200 9999 RA FEW005 SCT016 OVC150 24/24 Q1006
TAF WBGS 221700Z 2218/2318 13005KT 9999 SCT018 BKN150 
     TEMPO 2218/2221 5000 RA FEW005 SCT016 OVC140 
     TEMPO 2309/2313 3000 TSRA FEW015CB
       
WBGY 221800Z VRB01KT 9999 -RA FEW002 SCT020 OVC160 24/24 Q1006
WBKK 221800Z VRB03KT 9999 FEW014 SCT140 BKN270 25/24 Q1005 NOSIG
TAF WBKK 221700Z 2218/2318 11005KT 9999 FEW014
       
WBKL 221800Z 08003KT 040V120 9999 FEW012 BKN300 28/23 Q1005
TAF WBKL 221700Z 2218/2318 09005KT 9999 FEW012
       
WBKS 221800Z 22004KT 160V250 6000 -RA SCT010 BKN290 25/24 Q1006
TAF WBKS 221700Z 2218/2318 25007KT 9999 FEW015 
     TEMPO 2220/2224 3000 RA SCT014 FEW016CB SCT030
       
WBKT 221800Z 14004KT 060V190 9999 FEW013 SCT140 BKN270 28/26 Q1006
WBKW 221800Z VRB03KT 9999 FEW017 BKN300 24/23 Q1007
TAF WBKW 221700Z 2218/2318 35005KT 9999 FEW017
       
WBSB 221800Z 18004KT 9999 FEW015 FEW016CB BKN300 27/25 Q1006 NOSIG
TAF WBSB 221650Z 2218/2400 04004KT 9999 FEW015 FEW016CB 
     TEMPO 2220/2223 7000 SHRA TSRA 
     BECMG 2303/2305 33010KT SCT016 FEW017CB
       
WMKP 221800Z VRB03KT 9000 FEW025 SCT140 BKN270 27/23 Q1007 NOSIG
TAF WMKP 221700Z 2218/2318 01005KT 9000 FEW020 SCT140 BKN270 
     TEMPO 2308/2313 3000 TSRA FEW008 FEW017CB SCT023 BKN260
       
TAF WMBT 221700Z 2218/2318 03005KT 9999 FEW018 SCT140 BKN270 
     PROB30 
     TEMPO 2305/2309 3000 TSRA FEW017CB SCT024 
     BECMG 2312/2314 5000 RA FEW005 FEW015CB SCT025 OVC160
       
WBKS 221800Z 22004KT 160V250 6000 -RA SCT010 BKN290 25/24 Q1006
TAF WBKS 221700Z 2218/2318 25007KT 9999 FEW015 
     TEMPO 2220/2224 3000 RA SCT014 FEW016CB SCT030
       
WBGS 221800Z 15003KT 110V200 9999 RA FEW005 SCT016 OVC150 24/24 Q1006
TAF WBGS 221700Z 2218/2318 13005KT 9999 SCT018 BKN150 
     TEMPO 2218/2221 5000 RA FEW005 SCT016 OVC140 
     TEMPO 2309/2313 3000 TSRA FEW015CB
       
WMSA 221800Z 00000KT 9999 FEW026 BKN280 25/24 Q1008
TAF WMSA 221700Z 2218/2318 32005KT 9999 FEW026 SCT140 BKN270 
     TEMPO 2306/2310 3000 TSRA FEW017CB SCT025
       
WMKA 221800Z 00000KT 9999 FEW030 BKN270 26/25 Q1008
TAF WMKA 221700Z 2218/2318 04005KT 9999 FEW018 SCT140 BKN260 
     TEMPO 2310/2314 3000 TSRA FEW016CB SCT024
       
WMKI 221800Z 00000KT 9999 FEW030 SCT140 BKN280 26/25 Q1008
TAF WMKI 221700Z 2218/2318 02005KT 9999 FEW020 SCT140 BKN260 
     TEMPO 2306/2310 3000 TSRA FEW017CB SCT024
       
WMKJ 221800Z 00000KT 9999 FEW023 BKN300 25/24 Q1007
TAF WMKJ 221700Z 2218/2318 35005KT 9999 FEW022 SCT140 BKN280 
     TEMPO 2306/2310 3000 TSRA FEW016CB SCT020
       
WMKC 221800Z 23003KT 200V290 9999 SCT020 BKN220 25/25 Q1008
TAF WMKC 221700Z 2218/2318 05008KT 9999 FEW015 SCT025 BKN220 
     BECMG 2300/2302 6000 -RA FEW008 SCT020 OVC220
       
WMKN 221800Z 00000KT 9999 -RA SCT022 SCT150 BKN300 26/25 Q1007
TAF WMKN 221700Z 2218/2318 03008KT 9999 FEW022 SCT140 BKN300 
     BECMG 2301/2303 6000 -RA FEW008 SCT020 OVC220 
     TEMPO 2308/2312 3000 RA FEW005 SCT018 OVC160
       
WBKW 221800Z VRB03KT 9999 FEW017 BKN300 24/23 Q1007
TAF WBKW 221700Z 2218/2318 35005KT 9999 FEW017